WEATHER DATA

YESTERDAY
Time Temp. Dewp. Hum. Wind dir Wind speed Wind gust Bar. 1h Prec. 24h Prec.
00:00 14.3 6.4 59 0 0 1024.5 0.0000 0.0000
00:20 13.7 6.3 61 0 0 1024.6 0.0000 0.0000
00:30 13.5 6.4 62 0 0 1024.5 0.0000 0.0000
00:40 13.3 6.2 62 0 0 1024.5 0.0000 0.0000
00:50 13.1 6.2 63 0 0 1024.4 0.0000 0.0000
01:00 12.9 6 63 0 0 1024.3 0.0000 0.0000
01:10 12.8 6.4 65 0 0 1024.3 0.0000 0.0000
01:20 12.5 6.1 65 0 0 1024.2 0.0000 0.0000
01:30 12.4 6.2 66 0 0 1024.3 0.0000 0.0000
01:41 12.2 6 66 0 0 1024.2 0.0000 0.0000
01:50 12 6.1 67 0 0 1024 0.0000 0.0000
02:00 11.9 6 67 0 0 1024 0.0000 0.0000
02:11 11.7 5.8 67 0 0 1023.8 0.0000 0.0000
02:21 11.6 5.7 67 0 0 1023.6 0.0000 0.0000
02:30 11.5 5.8 68 0 0 1023.5 0.0000 0.0000
02:40 11.4 5.7 68 0 0 1023.5 0.0000 0.0000
02:51 11.3 5.6 68 0 0 1023.4 0.0000 0.0000
03:01 11.1 5.4 68 0 0 1023.2 0.0000 0.0000
03:10 10.9 5.2 68 0 0 1023.1 0.0000 0.0000
03:21 10.8 5.6 70 0 0 1023.2 0.0000 0.0000
03:31 10.7 5.5 70 0 0 1023.1 0.0000 0.0000
03:41 10.6 5.6 71 0 0 1023.1 0.0000 0.0000
03:51 10.5 5.3 70 0 0 1023 0.0000 0.0000
04:01 10.3 5.3 71 0 0 1023.1 0.0000 0.0000
04:11 10.2 5.2 71 0 0 1022.8 0.0000 0.0000
04:21 10.2 5.2 71 0 0 1022.8 0.0000 0.0000
04:32 10 5.2 72 0 0 1022.7 0.0000 0.0000
04:41 9.9 5.1 72 0 0 1022.5 0.0000 0.0000
04:51 9.7 4.9 72 0 0 1022.4 0.0000 0.0000
05:01 9.6 5 73 0 0 1022.3 0.0000 0.0000
05:11 9.5 4.9 73 0 0 1022.3 0.0000 0.0000
05:21 9.4 4.8 73 0 0 1022.4 0.0000 0.0000
05:31 9.3 4.7 73 0 0 1022.2 0.0000 0.0000
05:42 9.1 4.7 74 0 0 1022 0.0000 0.0000
05:51 9 4.6 74 0 0 1022.1 0.0000 0.0000
06:01 8.9 4.7 75 0 0 1022.1 0.0000 0.0000
06:11 8.8 4.6 75 0 0 1022 0.0000 0.0000
06:22 8.7 4.5 75 0 0 1021.9 0.0000 0.0000
06:39 8.5 4.5 76 0 0 1022 0.0000 0.0000
06:48 8.5 4.5 76 0 0 1022.1 0.0000 0.0000
06:58 8.4 4.6 77 0 0 1022.1 0.0000 0.0000
07:09 8.4 4.6 77 0 0 1022 0.0000 0.0000
07:19 8.4 4.8 78 0 0 1022.1 0.0000 0.0000
07:28 8.4 4.8 78 0 0 1022 0.0000 0.0000
07:39 8.4 5 79 0 0 1021.9 0.0000 0.0000
07:49 8.6 5.3 80 0 0 1022.2 0.0000 0.0000
07:59 8.8 5.2 78 0 0 1022.2 0.0000 0.0000
08:09 9.1 5.3 77 0 0 1022 0.0000 0.0000
08:19 9.6 5.4 75 0 0 1022 0.0000 0.0000
08:29 10.2 5.4 72 0 0 1022.1 0.0000 0.0000
08:39 10.8 5.6 70 0 0 1021.8 0.0000 0.0000
08:50 11.5 5.6 67 0 0 1021.9 0.0000 0.0000
08:59 12.1 6.2 67 0 0 1021.8 0.0000 0.0000
09:09 12.7 6.1 64 0 0 1021.8 0.0000 0.0000
09:19 13.3 6.4 63 0 0 1021.8 0.0000 0.0000
09:30 13.9 6.7 62 0 0 1021.4 0.0000 0.0000
09:35 14.2 6.6 60 0 0 1021.4 0.0000 0.0000
09:45 14.8 6.9 59 0 0 1021.3 0.0000 0.0000
09:55 15.4 6.7 56 0 0 1021.3 0.0000 0.0000
10:06 16.2 6.1 51 0 0 1021.2 0.0000 0.0000
10:16 16.9 6.4 50 0 0 1021.2 0.0000 0.0000
10:25 17.3 6.8 50 0 0 1021.1 0.0000 0.0000
10:35 17.8 6 46 0 0 1020.9 0.0000 0.0000
10:46 18.3 6.5 46 0 0 1020.8 0.0000 0.0000
10:56 18.6 6.1 44 0 0 1021 0.0000 0.0000
11:06 19 6.2 43 0 0 1020.8 0.0000 0.0000
11:16 19.4 6.2 42 0 0 1020.7 0.0000 0.0000
11:26 19.9 7 43 0 0 1020.6 0.0000 0.0000
11:36 20.2 6.5 41 0 0 1020.5 0.0000 0.0000
11:46 20.6 6.2 39 0 0 1020.3 0.0000 0.0000
11:56 21.1 6.6 39 0 0 1020.3 0.0000 0.0000
12:06 21.5 5.8 36 0 0 1020.1 0.0000 0.0000
12:16 21.8 6.1 36 0 0 1020 0.0000 0.0000
12:27 22.1 6.3 36 0 0 1019.7 0.0000 0.0000
12:37 22.6 4.6 31 0 0 1019.6 0.0000 0.0000
12:46 22.9 4.9 31 0 0 1019.5 0.0000 0.0000
12:56 23.2 5.6 32 0 0 1019.5 0.0000 0.0000
13:07 23.3 5.7 32 0 0 1019.4 0.0000 0.0000
13:17 23.2 6.1 33 0 0 1019.2 0.0000 0.0000
13:27 23.4 6.2 33 0 0 1019 0.0000 0.0000
13:37 23.6 6 32 0 0 1018.7 0.0000 0.0000
13:47 23.6 5 30 0 0 1018.6 0.0000 0.0000
13:57 23.9 5.8 31 0 0 1018.6 0.0000 0.0000
14:07 24.1 5.9 31 0 0 1018.5 0.0000 0.0000
14:18 24.3 6.1 31 0 0 1018.5 0.0000 0.0000
14:27 24.5 5.3 29 0 0 1018.2 0.0000 0.0000
14:37 24.5 4.8 28 0 0 1018 0.0000 0.0000
14:48 24.6 4.9 28 0 0 1017.9 0.0000 0.0000
14:58 24.7 5.5 29 0 0 1017.7 0.0000 0.0000
15:07 25 5.7 29 0 0 1017.6 0.0000 0.0000
15:17 25 4.7 27 0 0 1017.6 0.0000 0.0000
15:28 24.9 4.6 27 0 0 1017.3 0.0000 0.0000
15:38 25.2 5.4 28 0 0 1017.2 0.0000 0.0000
15:48 25 4.2 26 0 0 1017.1 0.0000 0.0000
15:58 25 4.7 27 0 0 1016.8 0.0000 0.0000
16:08 25 4.7 27 0 0 1016.7 0.0000 0.0000
16:18 24.9 5.2 28 0 0 1016.7 0.0000 0.0000
16:28 24.8 4.6 27 0 0 1016.6 0.0000 0.0000
16:38 24.7 4.5 27 0 0 1016.4 0.0000 0.0000
16:48 24.6 4.4 27 0 0 1016.2 0.0000 0.0000
16:58 24.5 4.8 28 0 0 1016.2 0.0000 0.0000
17:08 24.3 4.1 27 0 0 1016 0.0000 0.0000
17:19 24.3 4.6 28 0 0 1016 0.0000 0.0000
17:28 24.1 4 27 0 0 1015.8 0.0000 0.0000
17:38 24 4.4 28 0 0 1015.9 0.0000 0.0000
17:49 24 4.4 28 0 0 1015.6 0.0000 0.0000
17:59 23.9 4.3 28 0 0 1015.4 0.0000 0.0000
18:09 23.8 4.7 29 0 0 1015.6 0.0000 0.0000
18:18 23.7 4.6 29 0 0 1015.3 0.0000 0.0000
18:23 23.8 4.7 29 0 0 1015.3 0.0000 0.0000
18:33 23.7 5.6 31 0 0 1015.1 0.0000 0.0000
18:42 23.6 5 30 0 0 1015.1 0.0000 0.0000
18:53 23.5 4.5 29 0 0 1015 0.0000 0.0000
19:03 23.4 5.3 31 0 0 1014.8 0.0000 0.0000
19:13 23.3 4.3 29 0 0 1014.7 0.0000 0.0000
19:23 23.3 4.3 29 0 0 1014.8 0.0000 0.0000
19:33 23.1 4.6 30 0 0 1014.6 0.0000 0.0000
19:43 22.9 4.9 31 0 0 1014.6 0.0000 0.0000
19:53 22.7 4.7 31 0 0 1014.7 0.0000 0.0000
20:04 22.4 4.5 31 0 0 1014.8 0.0000 0.0000
20:13 22.1 4.7 32 0 0 1014.9 0.0000 0.0000
20:23 21.7 4.3 32 0 0 1015 0.0000 0.0000
20:34 21.3 4.4 33 0 0 1015 0.0000 0.0000
20:44 20.9 4 33 0 0 1014.7 0.0000 0.0000
20:53 20.6 4.2 34 0 0 1014.7 0.0000 0.0000
21:03 20.2 3.9 34 0 0 1014.9 0.0000 0.0000
21:14 19.8 4.7 37 0 0 1015 0.0000 0.0000
21:24 19.4 4.7 38 0 0 1014.9 0.0000 0.0000
21:34 18.9 5.4 41 0 0 1014.9 0.0000 0.0000
21:44 18.4 5.6 43 0 0 1014.8 0.0000 0.0000
21:54 18 5.6 44 0 0 1015 0.0000 0.0000
22:04 17.5 5.8 46 0 0 1014.8 0.0000 0.0000
22:14 17.1 5.4 46 0 0 1014.7 0.0000 0.0000
22:24 16.7 5 46 0 0 1014.6 0.0000 0.0000
22:34 16.4 5.7 49 0 0 1014.6 0.0000 0.0000
22:44 16.1 5.4 49 0 0 1014.6 0.0000 0.0000
22:55 15.7 5 49 0 0 1014.6 0.0000 0.0000
23:05 15.4 5 50 0 0 1014.4 0.0000 0.0000
23:14 15 5 51 0 0 1014.4 0.0000 0.0000
23:24 14.7 4.7 51 0 0 1014.4 0.0000 0.0000
23:35 14.3 4.6 52 0 0 1014.4 0.0000 0.0000
23:45 14 4.8 54 0 0 1014.3 0.0000 0.0000
23:55 13.7 4.8 55 0 0 1014.3 0.0000 0.0000

DAY STATISTIC

2019-04-21
TEMPERATURE
AVERAGE
17.1
HIGH
25.2
15:38
LOW
8.4
06:58
PRESSURE
AVERAGE
1019.3
HIGH
1024.6
00:20
LOW
1014.3
23:45
DEWPOINT
AVERAGE
5.3
HIGH
7.0
11:26
LOW
3.9
21:03
HUMIDITY
AVERAGE
50
HIGH
80
07:49
LOW
26
15:48
WIND SPEED
AVERAGE
0.0
HIGH
0.0
09:21
WIND GUST
AVERAGE
0.0
HIGH
0.0
09:21
WIND DIRECTION
PREVAILING
%
PRECIPITATION
RAIN HOUR
0.0
RAIN DAY
0.0
TEMPERATURE (°C)
LOW
8.4
HIGH
25.2
AVERAGE
17.1
PRESSURE (hpa)
LOW
1014.3
HIGH
1024.6
AVERAGE
1019.3
DEVICE